EBAW METAR and TAF | Updated Today

EBAW METAR

Antwerp International Airport (Deurne)

Observation time: 23 min. ago

EBAW 080520Z AUTO 19010KT 170V230 9999 // VV/// 05/02 Q0994

Need help? Read our tutorial on how to read METARs or read the parsed version below.

Antwerp International Airport (Deurne) (EBAW) METAR

  • Weather conditions on Wed, 08 Dec 2021 05:20:00 +0000 (23 min. ago):
  • Present conditions: Dry
  • Clouds: Vertical visibility
  • Visibility: Greater than 10 km
  • Wind: 190 degrees at 10 knots
  • Temperature: 5 celsius
  • Dew point: 2 celsius
  • Pressure: 994 millibars
  • Remarks: None


Useful to know...

EBAW TAF

Antwerp International Airport (Deurne)

TAF EBAW 080230Z 0803/0812 20013G23KT 9999 SCT020 SCT035
Observation time: 3:13 hr. ago
Need help? Read our tutorial on how to read TAFs or read the parsed version below.

Parsed version of TAF for Antwerp International Airport (Deurne) (EBAW)

  • From 08 December at 03:00 UTC, to day 08 of the month at 12:00 UTC
  • Clouds: Scattered at 610 meters; scattered at 1067 meters
  • Visibility: Greater than 10 km
  • Wind: 200 degrees at 13